Huvudsida
METAR-TAF:

METAR-TAF

Flygplatser :

Miri, Malaysia

latitud: 04-20N, longitud: 113-59E, höjd: 17 m

Aktuellt väderrapport

Denna rapport gjordes för 48 minuter sedan, klockan 08:00 UTC
Vind 5 kt från ost/nordost, varierande mellan nord/nordost och ost/sydost
Temperatur 27°C
Fuktighet 89%
Tryck 1009 hPa
Sikt 10 km eller mer
Spridda moln på en höjd av 1400 ft
Brutna moln på en höjd av 15000 ft

METAR: WBGR 210800Z 07005KT 030V110 9999 SCT014 BKN150 27/25 Q1009

Tid: 16:48 (08:48 UTC)

Väderprognos

Denna rapport gjordes för 3 timmar och 48 minuter sedan, klockan 05:00 UTC
Prognos gäller från 21 kl. 06 UTC till 22 kl. 06 UTC
Vind 3 kt varierande vindriktning
Sikt 10 km eller mer
Spridda moln på en höjd av 1600 ft
Temporärt
från 21 kl. 10 UTC till 21 kl. 14 UTC
Sikt: 4000 m
Få moln på en höjd av 1500 ft, Cumulonimbus.
åska, regn

TAF: WBGR 210500Z 2106/2206 VRB03KT 9999 SCT016 TEMPO 2110/2114 4000 TSRA FEW015CB

Aktuella väderrapporter och prognoser från 4000 flygplatser (METAR- och TAF-rapporter).

De tillgängliga stationerna syns som gula och röda prickar på kartan.

För musen över prickarna för att se namnen på stationerna.

Klicka sedan för att få väderrapporter och prognoser.

För att ändra kartan: Klicka på de gröna knapparna med ett svart kors på för att zooma in; den gröna knappen med ett streck på för att zooma ut; eller på de gröna pilarna för angränsande kartor.


METAR-TAF: